sensor_id;sensor_type;location;lat;lon;timestamp;P1;durP1;ratioP1;P2;durP2;ratioP2
20653;SDS011;21083;50.898;4.902;2023-04-25T00:00:56;15.23;;;5.72;;
20653;SDS011;21083;50.898;4.902;2023-04-25T00:03:23;15.02;;;5.95;;
20653;SDS011;21083;50.898;4.902;2023-04-25T00:05:51;14.50;;;5.03;;
20653;SDS011;21083;50.898;4.902;2023-04-25T00:08:18;17.60;;;6.05;;
20653;SDS011;21083;50.898;4.902;2023-04-25T00:10:45;19.63;;;5.15;;
20653;SDS011;21083;50.898;4.902;2023-04-25T00:13:13;16.38;;;5.65;;
20653;SDS011;21083;50.898;4.902;2023-04-25T00:15:43;14.90;;;4.82;;
20653;SDS011;21083;50.898;4.902;2023-04-25T00:18:13;19.08;;;5.15;;
20653;SDS011;21083;50.898;4.902;2023-04-25T00:20:40;15.02;;;4.85;;
20653;SDS011;21083;50.898;4.902;2023-04-25T00:23:11;19.88;;;5.28;;
20653;SDS011;21083;50.898;4.902;2023-04-25T00:25:42;19.75;;;5.38;;
20653;SDS011;21083;50.898;4.902;2023-04-25T00:28:09;21.02;;;4.88;;
20653;SDS011;21083;50.898;4.902;2023-04-25T00:30:36;20.90;;;4.85;;
20653;SDS011;21083;50.898;4.902;2023-04-25T00:33:05;25.25;;;5.03;;
20653;SDS011;21083;50.898;4.902;2023-04-25T00:35:32;20.42;;;4.72;;
20653;SDS011;21083;50.898;4.902;2023-04-25T00:38:00;19.85;;;5.03;;
20653;SDS011;21083;50.898;4.902;2023-04-25T00:40:27;27.83;;;5.65;;
20653;SDS011;21083;50.898;4.902;2023-04-25T00:42:54;18.33;;;4.72;;
20653;SDS011;21083;50.898;4.902;2023-04-25T00:45:21;19.33;;;4.55;;
20653;SDS011;21083;50.898;4.902;2023-04-25T00:47:53;17.05;;;4.60;;
20653;SDS011;21083;50.898;4.902;2023-04-25T00:50:22;16.25;;;4.22;;
20653;SDS011;21083;50.898;4.902;2023-04-25T00:52:49;19.60;;;4.57;;
20653;SDS011;21083;50.898;4.902;2023-04-25T00:55:17;16.20;;;4.57;;
20653;SDS011;21083;50.898;4.902;2023-04-25T00:57:44;15.50;;;4.75;;
20653;SDS011;21083;50.898;4.902;2023-04-25T01:00:12;17.90;;;4.47;;
20653;SDS011;21083;50.898;4.902;2023-04-25T01:02:40;14.13;;;4.50;;
20653;SDS011;21083;50.898;4.902;2023-04-25T01:05:08;15.95;;;5.05;;
20653;SDS011;21083;50.898;4.902;2023-04-25T01:07:36;21.42;;;5.28;;
20653;SDS011;21083;50.898;4.902;2023-04-25T01:10:04;22.17;;;5.07;;
20653;SDS011;21083;50.898;4.902;2023-04-25T01:12:32;18.50;;;5.53;;
20653;SDS011;21083;50.898;4.902;2023-04-25T01:14:59;19.25;;;5.03;;
20653;SDS011;21083;50.898;4.902;2023-04-25T01:17:26;19.23;;;5.15;;
20653;SDS011;21083;50.898;4.902;2023-04-25T01:19:54;19.85;;;5.70;;
20653;SDS011;21083;50.898;4.902;2023-04-25T01:22:22;19.23;;;4.57;;
20653;SDS011;21083;50.898;4.902;2023-04-25T01:24:49;21.13;;;5.03;;
20653;SDS011;21083;50.898;4.902;2023-04-25T01:27:16;16.58;;;4.65;;
20653;SDS011;21083;50.898;4.902;2023-04-25T01:29:45;22.58;;;4.60;;
20653;SDS011;21083;50.898;4.902;2023-04-25T01:32:13;19.90;;;4.70;;
20653;SDS011;21083;50.898;4.902;2023-04-25T01:34:40;16.67;;;4.43;;
20653;SDS011;21083;50.898;4.902;2023-04-25T01:37:07;18.33;;;5.00;;
20653;SDS011;21083;50.898;4.902;2023-04-25T01:39:36;25.17;;;5.13;;
20653;SDS011;21083;50.898;4.902;2023-04-25T01:42:03;14.70;;;4.05;;
20653;SDS011;21083;50.898;4.902;2023-04-25T01:44:30;18.52;;;4.70;;
20653;SDS011;21083;50.898;4.902;2023-04-25T01:46:57;22.13;;;5.30;;
20653;SDS011;21083;50.898;4.902;2023-04-25T01:49:24;14.85;;;4.50;;
20653;SDS011;21083;50.898;4.902;2023-04-25T01:51:51;16.52;;;4.82;;
20653;SDS011;21083;50.898;4.902;2023-04-25T01:54:18;21.73;;;5.55;;
20653;SDS011;21083;50.898;4.902;2023-04-25T01:56:51;21.80;;;5.40;;
20653;SDS011;21083;50.898;4.902;2023-04-25T01:59:18;17.35;;;5.22;;
20653;SDS011;21083;50.898;4.902;2023-04-25T02:01:47;21.83;;;6.07;;
20653;SDS011;21083;50.898;4.902;2023-04-25T02:04:13;19.95;;;4.85;;
20653;SDS011;21083;50.898;4.902;2023-04-25T02:06:40;21.42;;;5.00;;
20653;SDS011;21083;50.898;4.902;2023-04-25T02:09:07;18.45;;;5.10;;
20653;SDS011;21083;50.898;4.902;2023-04-25T02:11:34;24.83;;;6.05;;
20653;SDS011;21083;50.898;4.902;2023-04-25T02:14:03;22.00;;;5.28;;
20653;SDS011;21083;50.898;4.902;2023-04-25T02:16:30;15.88;;;4.85;;
20653;SDS011;21083;50.898;4.902;2023-04-25T02:18:57;20.20;;;4.80;;
20653;SDS011;21083;50.898;4.902;2023-04-25T02:21:24;18.17;;;4.88;;
20653;SDS011;21083;50.898;4.902;2023-04-25T02:23:51;22.20;;;4.63;;
20653;SDS011;21083;50.898;4.902;2023-04-25T02:26:19;20.25;;;4.88;;
20653;SDS011;21083;50.898;4.902;2023-04-25T02:28:48;27.23;;;5.55;;
20653;SDS011;21083;50.898;4.902;2023-04-25T02:31:18;20.25;;;5.55;;
20653;SDS011;21083;50.898;4.902;2023-04-25T02:33:45;15.80;;;4.47;;
20653;SDS011;21083;50.898;4.902;2023-04-25T02:36:11;24.98;;;6.65;;
20653;SDS011;21083;50.898;4.902;2023-04-25T02:38:38;18.98;;;4.60;;
20653;SDS011;21083;50.898;4.902;2023-04-25T02:41:05;20.50;;;4.40;;
20653;SDS011;21083;50.898;4.902;2023-04-25T02:43:32;17.60;;;4.82;;
20653;SDS011;21083;50.898;4.902;2023-04-25T02:45:59;18.00;;;5.28;;
20653;SDS011;21083;50.898;4.902;2023-04-25T02:48:28;15.73;;;4.53;;
20653;SDS011;21083;50.898;4.902;2023-04-25T02:50:55;17.00;;;5.20;;
20653;SDS011;21083;50.898;4.902;2023-04-25T02:53:22;19.52;;;5.35;;
20653;SDS011;21083;50.898;4.902;2023-04-25T02:55:49;18.42;;;4.40;;
20653;SDS011;21083;50.898;4.902;2023-04-25T02:58:17;21.90;;;5.65;;
20653;SDS011;21083;50.898;4.902;2023-04-25T03:00:44;25.08;;;6.07;;
20653;SDS011;21083;50.898;4.902;2023-04-25T03:03:11;20.40;;;5.30;;
20653;SDS011;21083;50.898;4.902;2023-04-25T03:05:40;17.35;;;5.28;;
20653;SDS011;21083;50.898;4.902;2023-04-25T03:08:07;19.13;;;4.50;;
20653;SDS011;21083;50.898;4.902;2023-04-25T03:10:34;17.48;;;4.60;;
20653;SDS011;21083;50.898;4.902;2023-04-25T03:13:01;22.15;;;5.95;;
20653;SDS011;21083;50.898;4.902;2023-04-25T03:15:28;22.73;;;4.80;;
20653;SDS011;21083;50.898;4.902;2023-04-25T03:17:56;18.60;;;5.03;;
20653;SDS011;21083;50.898;4.902;2023-04-25T03:20:23;13.95;;;4.50;;
20653;SDS011;21083;50.898;4.902;2023-04-25T03:22:51;19.92;;;4.90;;
20653;SDS011;21083;50.898;4.902;2023-04-25T03:25:18;16.83;;;5.22;;
20653;SDS011;21083;50.898;4.902;2023-04-25T03:27:46;19.25;;;4.43;;
20653;SDS011;21083;50.898;4.902;2023-04-25T03:30:13;24.13;;;5.35;;
20653;SDS011;21083;50.898;4.902;2023-04-25T03:32:40;26.20;;;4.70;;
20653;SDS011;21083;50.898;4.902;2023-04-25T03:35:07;22.85;;;5.15;;
20653;SDS011;21083;50.898;4.902;2023-04-25T03:37:34;20.17;;;5.55;;
20653;SDS011;21083;50.898;4.902;2023-04-25T03:40:03;23.95;;;5.00;;
20653;SDS011;21083;50.898;4.902;2023-04-25T03:42:31;13.85;;;4.28;;
20653;SDS011;21083;50.898;4.902;2023-04-25T03:44:58;15.00;;;4.30;;
20653;SDS011;21083;50.898;4.902;2023-04-25T03:47:25;19.98;;;4.68;;
20653;SDS011;21083;50.898;4.902;2023-04-25T03:49:52;19.60;;;4.93;;
20653;SDS011;21083;50.898;4.902;2023-04-25T03:52:19;25.83;;;4.95;;
20653;SDS011;21083;50.898;4.902;2023-04-25T03:54:45;20.35;;;4.95;;
20653;SDS011;21083;50.898;4.902;2023-04-25T03:57:14;26.30;;;5.30;;
20653;SDS011;21083;50.898;4.902;2023-04-25T03:59:41;17.83;;;4.63;;
20653;SDS011;21083;50.898;4.902;2023-04-25T04:02:08;21.17;;;5.05;;
20653;SDS011;21083;50.898;4.902;2023-04-25T04:04:35;18.15;;;4.80;;
20653;SDS011;21083;50.898;4.902;2023-04-25T04:07:02;22.70;;;4.97;;
20653;SDS011;21083;50.898;4.902;2023-04-25T04:09:29;23.77;;;6.18;;
20653;SDS011;21083;50.898;4.902;2023-04-25T04:11:56;22.15;;;5.82;;
20653;SDS011;21083;50.898;4.902;2023-04-25T04:14:24;17.58;;;5.32;;
20653;SDS011;21083;50.898;4.902;2023-04-25T04:16:51;19.17;;;5.00;;
20653;SDS011;21083;50.898;4.902;2023-04-25T04:19:18;24.88;;;5.25;;
20653;SDS011;21083;50.898;4.902;2023-04-25T04:21:45;20.52;;;4.78;;
20653;SDS011;21083;50.898;4.902;2023-04-25T04:24:12;17.70;;;5.40;;
20653;SDS011;21083;50.898;4.902;2023-04-25T04:26:40;27.60;;;6.28;;
20653;SDS011;21083;50.898;4.902;2023-04-25T04:29:09;20.48;;;4.93;;
20653;SDS011;21083;50.898;4.902;2023-04-25T04:31:38;22.85;;;4.90;;
20653;SDS011;21083;50.898;4.902;2023-04-25T04:34:05;21.35;;;4.90;;
20653;SDS011;21083;50.898;4.902;2023-04-25T04:36:32;24.35;;;5.72;;
20653;SDS011;21083;50.898;4.902;2023-04-25T04:38:59;19.85;;;4.85;;
20653;SDS011;21083;50.898;4.902;2023-04-25T04:41:27;17.17;;;4.45;;
20653;SDS011;21083;50.898;4.902;2023-04-25T04:43:54;22.30;;;5.13;;
20653;SDS011;21083;50.898;4.902;2023-04-25T04:46:21;22.00;;;4.85;;
20653;SDS011;21083;50.898;4.902;2023-04-25T04:48:51;25.83;;;5.05;;
20653;SDS011;21083;50.898;4.902;2023-04-25T04:51:18;19.63;;;4.25;;
20653;SDS011;21083;50.898;4.902;2023-04-25T04:53:45;20.02;;;5.10;;
20653;SDS011;21083;50.898;4.902;2023-04-25T04:56:12;14.82;;;4.07;;
20653;SDS011;21083;50.898;4.902;2023-04-25T04:58:39;19.13;;;5.07;;
20653;SDS011;21083;50.898;4.902;2023-04-25T05:01:06;18.77;;;5.13;;
20653;SDS011;21083;50.898;4.902;2023-04-25T05:03:33;28.83;;;6.00;;
20653;SDS011;21083;50.898;4.902;2023-04-25T05:06:01;20.42;;;5.40;;
20653;SDS011;21083;50.898;4.902;2023-04-25T05:08:29;22.20;;;5.53;;
20653;SDS011;21083;50.898;4.902;2023-04-25T05:10:56;14.55;;;4.22;;
20653;SDS011;21083;50.898;4.902;2023-04-25T05:13:23;23.10;;;5.22;;
20653;SDS011;21083;50.898;4.902;2023-04-25T05:15:49;25.67;;;5.85;;
20653;SDS011;21083;50.898;4.902;2023-04-25T05:18:16;24.75;;;5.93;;
20653;SDS011;21083;50.898;4.902;2023-04-25T05:20:43;22.00;;;4.55;;
20653;SDS011;21083;50.898;4.902;2023-04-25T05:23:12;20.42;;;5.00;;
20653;SDS011;21083;50.898;4.902;2023-04-25T05:25:39;21.92;;;5.18;;
20653;SDS011;21083;50.898;4.902;2023-04-25T05:28:06;19.23;;;5.35;;
20653;SDS011;21083;50.898;4.902;2023-04-25T05:30:33;24.88;;;5.05;;
20653;SDS011;21083;50.898;4.902;2023-04-25T05:33:00;18.02;;;4.53;;
20653;SDS011;21083;50.898;4.902;2023-04-25T05:35:27;20.52;;;5.45;;
20653;SDS011;21083;50.898;4.902;2023-04-25T05:37:55;28.50;;;7.93;;
20653;SDS011;21083;50.898;4.902;2023-04-25T05:40:23;16.85;;;5.30;;
20653;SDS011;21083;50.898;4.902;2023-04-25T05:42:50;22.17;;;6.55;;
20653;SDS011;21083;50.898;4.902;2023-04-25T05:45:17;21.60;;;4.82;;
20653;SDS011;21083;50.898;4.902;2023-04-25T05:47:44;20.45;;;4.95;;
20653;SDS011;21083;50.898;4.902;2023-04-25T05:50:11;21.38;;;5.03;;
20653;SDS011;21083;50.898;4.902;2023-04-25T05:52:38;28.10;;;5.82;;
20653;SDS011;21083;50.898;4.902;2023-04-25T05:55:05;26.95;;;5.55;;
20653;SDS011;21083;50.898;4.902;2023-04-25T05:57:34;16.98;;;5.07;;
20653;SDS011;21083;50.898;4.902;2023-04-25T06:00:01;20.40;;;5.20;;
20653;SDS011;21083;50.898;4.902;2023-04-25T06:02:34;18.80;;;5.78;;
20653;SDS011;21083;50.898;4.902;2023-04-25T06:05:01;26.23;;;7.35;;
20653;SDS011;21083;50.898;4.902;2023-04-25T06:07:29;16.67;;;4.82;;
20653;SDS011;21083;50.898;4.902;2023-04-25T06:09:56;17.67;;;5.50;;
20653;SDS011;21083;50.898;4.902;2023-04-25T06:12:23;27.98;;;5.95;;
20653;SDS011;21083;50.898;4.902;2023-04-25T06:14:51;21.48;;;4.90;;
20653;SDS011;21083;50.898;4.902;2023-04-25T06:17:19;21.42;;;5.72;;
20653;SDS011;21083;50.898;4.902;2023-04-25T06:19:46;20.48;;;5.20;;
20653;SDS011;21083;50.898;4.902;2023-04-25T06:22:13;20.70;;;5.47;;
20653;SDS011;21083;50.898;4.902;2023-04-25T06:24:40;21.83;;;4.57;;
20653;SDS011;21083;50.898;4.902;2023-04-25T06:27:07;20.48;;;5.10;;
20653;SDS011;21083;50.898;4.902;2023-04-25T06:29:34;20.50;;;6.00;;
20653;SDS011;21083;50.898;4.902;2023-04-25T06:32:02;20.08;;;5.22;;
20653;SDS011;21083;50.898;4.902;2023-04-25T06:34:30;22.20;;;5.38;;
20653;SDS011;21083;50.898;4.902;2023-04-25T06:36:57;21.27;;;4.90;;
20653;SDS011;21083;50.898;4.902;2023-04-25T06:39:24;25.13;;;4.93;;
20653;SDS011;21083;50.898;4.902;2023-04-25T06:41:51;23.85;;;4.93;;
20653;SDS011;21083;50.898;4.902;2023-04-25T06:44:18;16.80;;;5.05;;
20653;SDS011;21083;50.898;4.902;2023-04-25T06:46:46;26.42;;;5.88;;
20653;SDS011;21083;50.898;4.902;2023-04-25T06:49:14;30.92;;;5.70;;
20653;SDS011;21083;50.898;4.902;2023-04-25T06:51:41;23.02;;;6.22;;
20653;SDS011;21083;50.898;4.902;2023-04-25T06:54:08;21.73;;;5.88;;
20653;SDS011;21083;50.898;4.902;2023-04-25T06:56:35;19.33;;;5.32;;
20653;SDS011;21083;50.898;4.902;2023-04-25T06:59:02;23.73;;;5.05;;
20653;SDS011;21083;50.898;4.902;2023-04-25T07:01:29;19.20;;;4.75;;
20653;SDS011;21083;50.898;4.902;2023-04-25T07:03:56;26.67;;;5.40;;
20653;SDS011;21083;50.898;4.902;2023-04-25T07:06:25;22.98;;;5.05;;
20653;SDS011;21083;50.898;4.902;2023-04-25T07:08:52;22.77;;;4.72;;
20653;SDS011;21083;50.898;4.902;2023-04-25T07:11:20;29.88;;;5.45;;
20653;SDS011;21083;50.898;4.902;2023-04-25T07:13:47;24.90;;;5.53;;
20653;SDS011;21083;50.898;4.902;2023-04-25T07:16:14;18.20;;;5.32;;
20653;SDS011;21083;50.898;4.902;2023-04-25T07:18:42;22.60;;;5.97;;
20653;SDS011;21083;50.898;4.902;2023-04-25T07:21:09;24.02;;;4.78;;
20653;SDS011;21083;50.898;4.902;2023-04-25T07:23:38;27.25;;;6.32;;
20653;SDS011;21083;50.898;4.902;2023-04-25T07:26:06;16.38;;;3.60;;
20653;SDS011;21083;50.898;4.902;2023-04-25T07:28:33;24.20;;;4.32;;
20653;SDS011;21083;50.898;4.902;2023-04-25T07:31:00;19.67;;;3.90;;
20653;SDS011;21083;50.898;4.902;2023-04-25T07:33:27;15.27;;;3.60;;
20653;SDS011;21083;50.898;4.902;2023-04-25T07:35:54;19.70;;;3.40;;
20653;SDS011;21083;50.898;4.902;2023-04-25T07:38:21;19.50;;;3.95;;
20653;SDS011;21083;50.898;4.902;2023-04-25T07:40:50;14.93;;;3.60;;
20653;SDS011;21083;50.898;4.902;2023-04-25T07:43:17;14.00;;;3.85;;
20653;SDS011;21083;50.898;4.902;2023-04-25T07:45:44;17.58;;;3.70;;
20653;SDS011;21083;50.898;4.902;2023-04-25T07:48:11;14.07;;;3.38;;
20653;SDS011;21083;50.898;4.902;2023-04-25T07:50:42;14.25;;;3.08;;
20653;SDS011;21083;50.898;4.902;2023-04-25T07:53:09;18.67;;;3.22;;
20653;SDS011;21083;50.898;4.902;2023-04-25T07:55:36;17.55;;;2.95;;
20653;SDS011;21083;50.898;4.902;2023-04-25T07:58:06;20.98;;;3.60;;
20653;SDS011;21083;50.898;4.902;2023-04-25T08:00:34;18.90;;;3.55;;
20653;SDS011;21083;50.898;4.902;2023-04-25T08:03:01;23.27;;;3.47;;
20653;SDS011;21083;50.898;4.902;2023-04-25T08:05:28;14.27;;;3.03;;
20653;SDS011;21083;50.898;4.902;2023-04-25T08:07:55;17.58;;;2.88;;
20653;SDS011;21083;50.898;4.902;2023-04-25T08:10:22;19.40;;;3.35;;
20653;SDS011;21083;50.898;4.902;2023-04-25T08:12:49;27.13;;;4.35;;
20653;SDS011;21083;50.898;4.902;2023-04-25T08:15:18;17.02;;;3.33;;
20653;SDS011;21083;50.898;4.902;2023-04-25T08:17:45;15.52;;;3.38;;
20653;SDS011;21083;50.898;4.902;2023-04-25T08:20:12;19.40;;;3.55;;
20653;SDS011;21083;50.898;4.902;2023-04-25T08:22:39;13.07;;;3.00;;
20653;SDS011;21083;50.898;4.902;2023-04-25T08:25:06;15.27;;;3.38;;
20653;SDS011;21083;50.898;4.902;2023-04-25T08:27:33;23.13;;;3.45;;
20653;SDS011;21083;50.898;4.902;2023-04-25T08:30:00;19.15;;;3.80;;
20653;SDS011;21083;50.898;4.902;2023-04-25T08:32:29;16.02;;;2.80;;
20653;SDS011;21083;50.898;4.902;2023-04-25T08:34:56;17.20;;;3.58;;
20653;SDS011;21083;50.898;4.902;2023-04-25T08:37:23;21.38;;;4.22;;
20653;SDS011;21083;50.898;4.902;2023-04-25T08:39:50;21.85;;;3.45;;
20653;SDS011;21083;50.898;4.902;2023-04-25T08:42:18;13.98;;;3.13;;
20653;SDS011;21083;50.898;4.902;2023-04-25T08:44:47;16.08;;;3.63;;
20653;SDS011;21083;50.898;4.902;2023-04-25T08:47:15;45.95;;;4.55;;
20653;SDS011;21083;50.898;4.902;2023-04-25T08:49:44;16.80;;;3.05;;
20653;SDS011;21083;50.898;4.902;2023-04-25T08:52:12;15.80;;;2.90;;
20653;SDS011;21083;50.898;4.902;2023-04-25T08:54:41;15.23;;;2.92;;
20653;SDS011;21083;50.898;4.902;2023-04-25T08:57:09;17.15;;;3.30;;
20653;SDS011;21083;50.898;4.902;2023-04-25T08:59:37;11.63;;;2.53;;
20653;SDS011;21083;50.898;4.902;2023-04-25T09:02:10;15.70;;;3.90;;
20653;SDS011;21083;50.898;4.902;2023-04-25T09:04:39;16.05;;;2.60;;
20653;SDS011;21083;50.898;4.902;2023-04-25T09:07:08;10.98;;;2.83;;
20653;SDS011;21083;50.898;4.902;2023-04-25T09:09:35;14.18;;;3.72;;
20653;SDS011;21083;50.898;4.902;2023-04-25T09:12:02;12.23;;;2.88;;
20653;SDS011;21083;50.898;4.902;2023-04-25T09:14:30;9.85;;;2.65;;
20653;SDS011;21083;50.898;4.902;2023-04-25T09:16:57;13.77;;;2.95;;
20653;SDS011;21083;50.898;4.902;2023-04-25T09:19:26;11.32;;;2.28;;
20653;SDS011;21083;50.898;4.902;2023-04-25T09:21:54;12.65;;;2.67;;
20653;SDS011;21083;50.898;4.902;2023-04-25T09:24:30;13.95;;;2.83;;
20653;SDS011;21083;50.898;4.902;2023-04-25T09:26:58;13.75;;;2.30;;
20653;SDS011;21083;50.898;4.902;2023-04-25T09:29:29;10.18;;;2.20;;
20653;SDS011;21083;50.898;4.902;2023-04-25T09:32:10;11.25;;;2.70;;
20653;SDS011;21083;50.898;4.902;2023-04-25T09:34:39;9.40;;;2.42;;
20653;SDS011;21083;50.898;4.902;2023-04-25T09:37:07;16.90;;;2.45;;
20653;SDS011;21083;50.898;4.902;2023-04-25T09:39:36;10.98;;;2.72;;
20653;SDS011;21083;50.898;4.902;2023-04-25T09:42:03;14.55;;;2.38;;
20653;SDS011;21083;50.898;4.902;2023-04-25T09:44:30;68.68;;;29.98;;
20653;SDS011;21083;50.898;4.902;2023-04-25T09:46:58;17.85;;;3.33;;
20653;SDS011;21083;50.898;4.902;2023-04-25T09:49:25;14.30;;;2.60;;
20653;SDS011;21083;50.898;4.902;2023-04-25T09:51:56;14.40;;;2.60;;
20653;SDS011;21083;50.898;4.902;2023-04-25T09:54:23;13.25;;;2.85;;
20653;SDS011;21083;50.898;4.902;2023-04-25T09:56:52;21.75;;;2.80;;
20653;SDS011;21083;50.898;4.902;2023-04-25T09:59:20;11.52;;;2.40;;
20653;SDS011;21083;50.898;4.902;2023-04-25T10:01:48;13.93;;;2.65;;
20653;SDS011;21083;50.898;4.902;2023-04-25T10:04:18;11.32;;;2.33;;
20653;SDS011;21083;50.898;4.902;2023-04-25T10:06:48;11.63;;;2.63;;
20653;SDS011;21083;50.898;4.902;2023-04-25T10:09:15;17.40;;;2.72;;
20653;SDS011;21083;50.898;4.902;2023-04-25T10:11:45;11.35;;;2.40;;
20653;SDS011;21083;50.898;4.902;2023-04-25T10:14:14;8.30;;;1.83;;
20653;SDS011;21083;50.898;4.902;2023-04-25T10:16:43;17.25;;;2.92;;
20653;SDS011;21083;50.898;4.902;2023-04-25T10:19:10;12.57;;;2.92;;
20653;SDS011;21083;50.898;4.902;2023-04-25T10:21:40;9.48;;;1.85;;
20653;SDS011;21083;50.898;4.902;2023-04-25T10:24:14;16.65;;;2.60;;
20653;SDS011;21083;50.898;4.902;2023-04-25T10:26:41;9.95;;;1.92;;
20653;SDS011;21083;50.898;4.902;2023-04-25T10:29:09;18.88;;;3.20;;
20653;SDS011;21083;50.898;4.902;2023-04-25T10:31:44;16.80;;;2.65;;
20653;SDS011;21083;50.898;4.902;2023-04-25T10:34:12;8.23;;;1.80;;
20653;SDS011;21083;50.898;4.902;2023-04-25T10:36:39;13.85;;;2.10;;
20653;SDS011;21083;50.898;4.902;2023-04-25T10:39:06;9.57;;;1.77;;
20653;SDS011;21083;50.898;4.902;2023-04-25T10:41:45;8.60;;;1.70;;
20653;SDS011;21083;50.898;4.902;2023-04-25T10:44:13;6.30;;;1.80;;
20653;SDS011;21083;50.898;4.902;2023-04-25T10:46:42;6.28;;;1.42;;
20653;SDS011;21083;50.898;4.902;2023-04-25T10:49:10;6.60;;;1.52;;
20653;SDS011;21083;50.898;4.902;2023-04-25T10:54:41;9.85;;;1.50;;
20653;SDS011;21083;50.898;4.902;2023-04-25T10:59:57;5.68;;;1.20;;
20653;SDS011;21083;50.898;4.902;2023-04-25T11:02:27;9.27;;;1.63;;
20653;SDS011;21083;50.898;4.902;2023-04-25T11:04:54;5.05;;;1.42;;
20653;SDS011;21083;50.898;4.902;2023-04-25T11:07:23;5.70;;;1.20;;
20653;SDS011;21083;50.898;4.902;2023-04-25T11:10:02;5.88;;;1.17;;
20653;SDS011;21083;50.898;4.902;2023-04-25T11:12:30;9.90;;;1.48;;
20653;SDS011;21083;50.898;4.902;2023-04-25T11:14:58;7.32;;;1.58;;
20653;SDS011;21083;50.898;4.902;2023-04-25T11:17:28;6.75;;;1.40;;
20653;SDS011;21083;50.898;4.902;2023-04-25T11:19:55;6.88;;;1.25;;
20653;SDS011;21083;50.898;4.902;2023-04-25T11:22:23;3.05;;;1.05;;
20653;SDS011;21083;50.898;4.902;2023-04-25T11:24:53;8.00;;;1.55;;
20653;SDS011;21083;50.898;4.902;2023-04-25T11:27:20;10.45;;;1.73;;
20653;SDS011;21083;50.898;4.902;2023-04-25T11:29:49;6.00;;;1.30;;
20653;SDS011;21083;50.898;4.902;2023-04-25T11:32:17;5.75;;;1.75;;
20653;SDS011;21083;50.898;4.902;2023-04-25T11:34:46;7.18;;;1.48;;
20653;SDS011;21083;50.898;4.902;2023-04-25T11:37:13;8.95;;;1.80;;
20653;SDS011;21083;50.898;4.902;2023-04-25T11:39:44;7.15;;;1.48;;
20653;SDS011;21083;50.898;4.902;2023-04-25T11:42:12;8.25;;;1.40;;
20653;SDS011;21083;50.898;4.902;2023-04-25T11:44:39;6.35;;;1.42;;
20653;SDS011;21083;50.898;4.902;2023-04-25T11:47:06;6.40;;;1.23;;
20653;SDS011;21083;50.898;4.902;2023-04-25T11:49:33;6.72;;;1.38;;
20653;SDS011;21083;50.898;4.902;2023-04-25T11:52:03;8.65;;;1.58;;
20653;SDS011;21083;50.898;4.902;2023-04-25T11:54:34;6.32;;;1.33;;
20653;SDS011;21083;50.898;4.902;2023-04-25T11:57:02;8.85;;;1.75;;
20653;SDS011;21083;50.898;4.902;2023-04-25T11:59:30;7.20;;;1.58;;
20653;SDS011;21083;50.898;4.902;2023-04-25T12:01:57;9.20;;;2.22;;
20653;SDS011;21083;50.898;4.902;2023-04-25T12:04:29;6.68;;;1.40;;
20653;SDS011;21083;50.898;4.902;2023-04-25T12:06:57;9.75;;;1.90;;
20653;SDS011;21083;50.898;4.902;2023-04-25T12:09:30;12.30;;;2.30;;
20653;SDS011;21083;50.898;4.902;2023-04-25T12:11:58;10.30;;;2.88;;
20653;SDS011;21083;50.898;4.902;2023-04-25T12:14:28;8.68;;;1.67;;
20653;SDS011;21083;50.898;4.902;2023-04-25T12:16:57;8.07;;;1.92;;
20653;SDS011;21083;50.898;4.902;2023-04-25T12:19:25;7.43;;;1.88;;
20653;SDS011;21083;50.898;4.902;2023-04-25T12:21:52;10.32;;;1.63;;
20653;SDS011;21083;50.898;4.902;2023-04-25T12:24:21;9.98;;;1.85;;
20653;SDS011;21083;50.898;4.902;2023-04-25T12:26:52;9.15;;;1.48;;
20653;SDS011;21083;50.898;4.902;2023-04-25T12:29:20;11.02;;;2.47;;
20653;SDS011;21083;50.898;4.902;2023-04-25T12:31:49;10.57;;;1.88;;
20653;SDS011;21083;50.898;4.902;2023-04-25T12:34:17;8.68;;;1.55;;
20653;SDS011;21083;50.898;4.902;2023-04-25T12:36:44;7.10;;;1.30;;
20653;SDS011;21083;50.898;4.902;2023-04-25T12:39:15;8.40;;;1.88;;
20653;SDS011;21083;50.898;4.902;2023-04-25T12:41:42;7.47;;;1.80;;
20653;SDS011;21083;50.898;4.902;2023-04-25T12:44:12;8.07;;;1.63;;
20653;SDS011;21083;50.898;4.902;2023-04-25T12:46:40;7.57;;;1.42;;
20653;SDS011;21083;50.898;4.902;2023-04-25T12:49:07;10.63;;;1.60;;
20653;SDS011;21083;50.898;4.902;2023-04-25T12:51:34;8.52;;;1.60;;
20653;SDS011;21083;50.898;4.902;2023-04-25T12:54:02;8.43;;;1.40;;
20653;SDS011;21083;50.898;4.902;2023-04-25T12:56:31;4.95;;;1.13;;
20653;SDS011;21083;50.898;4.902;2023-04-25T12:58:58;10.18;;;1.48;;
20653;SDS011;21083;50.898;4.902;2023-04-25T13:01:26;6.60;;;1.55;;
20653;SDS011;21083;50.898;4.902;2023-04-25T13:03:53;6.53;;;1.35;;
20653;SDS011;21083;50.898;4.902;2023-04-25T13:06:21;4.15;;;0.93;;
20653;SDS011;21083;50.898;4.902;2023-04-25T13:08:48;4.38;;;1.20;;
20653;SDS011;21083;50.898;4.902;2023-04-25T13:11:15;5.38;;;1.42;;
20653;SDS011;21083;50.898;4.902;2023-04-25T13:13:43;5.47;;;1.00;;
20653;SDS011;21083;50.898;4.902;2023-04-25T13:16:10;9.15;;;1.17;;
20653;SDS011;21083;50.898;4.902;2023-04-25T13:18:40;6.32;;;1.00;;
20653;SDS011;21083;50.898;4.902;2023-04-25T13:21:07;7.60;;;1.55;;
20653;SDS011;21083;50.898;4.902;2023-04-25T13:23:36;5.22;;;1.30;;
20653;SDS011;21083;50.898;4.902;2023-04-25T13:26:03;5.50;;;1.30;;
20653;SDS011;21083;50.898;4.902;2023-04-25T13:28:30;6.88;;;1.30;;
20653;SDS011;21083;50.898;4.902;2023-04-25T13:30:57;6.80;;;1.25;;
20653;SDS011;21083;50.898;4.902;2023-04-25T13:33:24;4.82;;;1.13;;
20653;SDS011;21083;50.898;4.902;2023-04-25T13:35:53;6.07;;;1.23;;
20653;SDS011;21083;50.898;4.902;2023-04-25T13:38:21;4.18;;;0.95;;
20653;SDS011;21083;50.898;4.902;2023-04-25T13:40:49;6.55;;;1.05;;
20653;SDS011;21083;50.898;4.902;2023-04-25T13:43:18;5.60;;;1.00;;
20653;SDS011;21083;50.898;4.902;2023-04-25T13:45:45;4.68;;;1.25;;
20653;SDS011;21083;50.898;4.902;2023-04-25T13:48:12;6.18;;;1.10;;
20653;SDS011;21083;50.898;4.902;2023-04-25T13:50:39;4.35;;;1.10;;
20653;SDS011;21083;50.898;4.902;2023-04-25T13:53:08;8.68;;;1.20;;
20653;SDS011;21083;50.898;4.902;2023-04-25T13:55:35;5.10;;;1.30;;
20653;SDS011;21083;50.898;4.902;2023-04-25T13:58:03;5.05;;;0.95;;
20653;SDS011;21083;50.898;4.902;2023-04-25T14:00:33;7.05;;;1.23;;
20653;SDS011;21083;50.898;4.902;2023-04-25T14:03:03;7.80;;;1.30;;
20653;SDS011;21083;50.898;4.902;2023-04-25T14:05:32;4.40;;;0.90;;
20653;SDS011;21083;50.898;4.902;2023-04-25T14:08:03;4.95;;;1.05;;
20653;SDS011;21083;50.898;4.902;2023-04-25T14:10:32;3.70;;;0.90;;
20653;SDS011;21083;50.898;4.902;2023-04-25T14:13:00;3.92;;;0.80;;
20653;SDS011;21083;50.898;4.902;2023-04-25T14:15:28;7.13;;;1.05;;
20653;SDS011;21083;50.898;4.902;2023-04-25T14:17:55;5.55;;;0.93;;
20653;SDS011;21083;50.898;4.902;2023-04-25T14:20:22;3.78;;;0.80;;
20653;SDS011;21083;50.898;4.902;2023-04-25T14:22:49;4.55;;;1.00;;
20653;SDS011;21083;50.898;4.902;2023-04-25T14:25:17;6.22;;;1.23;;
20653;SDS011;21083;50.898;4.902;2023-04-25T14:27:45;6.88;;;1.23;;
20653;SDS011;21083;50.898;4.902;2023-04-25T14:30:14;4.32;;;0.90;;
20653;SDS011;21083;50.898;4.902;2023-04-25T14:32:42;5.75;;;0.98;;
20653;SDS011;21083;50.898;4.902;2023-04-25T14:35:10;4.20;;;1.08;;
20653;SDS011;21083;50.898;4.902;2023-04-25T14:37:37;7.35;;;1.85;;
20653;SDS011;21083;50.898;4.902;2023-04-25T14:40:04;4.35;;;0.88;;
20653;SDS011;21083;50.898;4.902;2023-04-25T14:42:34;9.82;;;1.27;;
20653;SDS011;21083;50.898;4.902;2023-04-25T14:45:02;9.02;;;1.25;;
20653;SDS011;21083;50.898;4.902;2023-04-25T14:47:30;8.77;;;1.48;;